PWSweather.com
Personal Weather Stations
Station Observations

AwhituWaiuku, CA 268400

Lat: -37.058, Lon: -174.6346

Elevation: 250

Station Type: Personal

http://www.weather-display.com/windy/gb/grahamsbeach.htm

High Low Average
Temperature 61.9°F16.6°C 50.8°F10.4°C 56.1°F13.4°C
Dew Point 61.3°F16.3°C 50.3°F10.2°C 55.6°F13.1°C
Winds 15.0 mph 24.1 kmh Calm Calm 4.0 mph SE6.4 kmh SE
Wind Gusts 17.3 mph27.8 kmh -- 6.0 mph9.7 kmh
Humidity 98% 98% 98%
Pressure 30.03 in1016.9 mb 29.79 in1008.8 mb -
Precipitation 0.01 in0.3 mm - -
Hour Temp Dew Point Humidity Winds Wind Gusts Pressure Precip Precip Rate Daily Precip Total
01:00 AM 52.9°F11.6°C 52.4°F11.3°C 98% 15.0 mph WNW24.1 kmh WNW 16.1 mph25.9 kmh 30.00 in1015.9 mb 0.00 in0.0 mm 0.00 in/hr0.0 mm/hr 0.00 in0.0 mm
02:00 AM 52.9°F11.6°C 52.4°F11.3°C 98% Calm Calm 1.2 mph1.9 kmh 30.00 in1015.9 mb 0.00 in0.0 mm 0.00 in/hr0.0 mm/hr 0.00 in0.0 mm
03:00 AM 51.8°F11.0°C 51.2°F10.7°C 98% Calm Calm -- 30.00 in1015.9 mb 0.00 in0.0 mm 0.00 in/hr0.0 mm/hr 0.00 in0.0 mm
04:00 AM 50.9°F10.5°C 50.4°F10.2°C 98% Calm Calm -- 30.00 in1015.9 mb 0.00 in0.0 mm 0.00 in/hr0.0 mm/hr 0.00 in0.0 mm
05:00 AM 51.4°F10.8°C 50.9°F10.5°C 98% Calm Calm -- 30.00 in1015.9 mb 0.00 in0.0 mm 0.00 in/hr0.0 mm/hr 0.00 in0.0 mm
07:00 AM 50.8°F10.4°C 50.3°F10.2°C 98% 6.9 mph ESE11.1 kmh ESE 8.1 mph13.0 kmh 30.02 in1016.6 mb 0.00 in0.0 mm 0.00 in/hr0.0 mm/hr 0.00 in0.0 mm
08:00 AM 51.1°F10.6°C 50.6°F10.3°C 98% Calm Calm -- 30.03 in1016.9 mb 0.00 in0.0 mm 0.00 in/hr0.0 mm/hr 0.00 in0.0 mm
09:00 AM 53.4°F11.9°C 52.9°F11.6°C 98% 3.5 mph ENE5.6 kmh ENE 5.8 mph9.3 kmh 30.02 in1016.6 mb 0.00 in0.0 mm 0.00 in/hr0.0 mm/hr 0.00 in0.0 mm
10:00 AM 54.6°F12.6°C 54.0°F12.2°C 98% 6.9 mph N11.1 kmh N 8.1 mph13.0 kmh 30.03 in1016.9 mb 0.00 in0.0 mm 0.00 in/hr0.0 mm/hr 0.00 in0.0 mm
11:00 AM 55.8°F13.2°C 55.2°F12.9°C 98% 6.9 mph ENE11.1 kmh ENE 10.4 mph16.7 kmh 30.02 in1016.6 mb 0.00 in0.0 mm 0.00 in/hr0.0 mm/hr 0.00 in0.0 mm
12:00 PM 56.0°F13.3°C 55.4°F13.0°C 98% 2.3 mph NE3.7 kmh NE 5.8 mph9.3 kmh 30.00 in1015.9 mb 0.00 in0.0 mm 0.00 in/hr0.0 mm/hr 0.00 in0.0 mm
01:00 PM 56.3°F13.5°C 55.8°F13.2°C 98% 2.3 mph NNE3.7 kmh NNE 5.8 mph9.3 kmh 29.97 in1014.9 mb 0.00 in0.0 mm 0.00 in/hr0.0 mm/hr 0.00 in0.0 mm
02:00 PM 57.6°F14.2°C 57.1°F13.9°C 98% 5.8 mph N9.3 kmh N 5.8 mph9.3 kmh 29.94 in1013.9 mb 0.00 in0.0 mm 0.00 in/hr0.0 mm/hr 0.00 in0.0 mm
03:00 PM 59.5°F15.3°C 58.9°F14.9°C 98% 3.5 mph NE5.6 kmh NE 5.8 mph9.3 kmh 29.92 in1013.2 mb 0.00 in0.0 mm 0.00 in/hr0.0 mm/hr 0.00 in0.0 mm
04:00 PM 61.2°F16.2°C 60.7°F15.9°C 98% 5.8 mph NNW9.3 kmh NNW 5.8 mph9.3 kmh 29.89 in1012.2 mb 0.00 in0.0 mm 0.00 in/hr0.0 mm/hr 0.00 in0.0 mm
05:00 PM 61.9°F16.6°C 61.3°F16.3°C 98% 8.1 mph NW13.0 kmh NW 10.4 mph16.7 kmh 29.89 in1012.2 mb 0.00 in0.0 mm 0.00 in/hr0.0 mm/hr 0.00 in0.0 mm
06:00 PM 61.1°F16.2°C 60.5°F15.8°C 98% 4.6 mph NNE7.4 kmh NNE 6.9 mph11.1 kmh 29.88 in1011.9 mb 0.00 in0.0 mm 0.00 in/hr0.0 mm/hr 0.00 in0.0 mm
07:00 PM 59.6°F15.3°C 59.0°F15.0°C 98% 3.5 mph NE5.6 kmh NE 5.8 mph9.3 kmh 29.88 in1011.9 mb 0.00 in0.0 mm 0.00 in/hr0.0 mm/hr 0.00 in0.0 mm
08:00 PM 59.0°F15.0°C 58.4°F14.7°C 98% Calm Calm -- 29.87 in1011.5 mb 0.00 in0.0 mm 0.00 in/hr0.0 mm/hr 0.00 in0.0 mm
09:00 PM 59.0°F15.0°C 58.4°F14.7°C 98% 5.8 mph NE9.3 kmh NE 5.8 mph9.3 kmh 29.84 in1010.5 mb 0.00 in0.0 mm 0.00 in/hr0.0 mm/hr 0.01 in0.3 mm
10:00 PM 58.7°F14.8°C 58.1°F14.5°C 98% 4.6 mph ENE7.4 kmh ENE 6.9 mph11.1 kmh 29.82 in1009.8 mb 0.00 in0.0 mm 0.00 in/hr0.0 mm/hr 0.01 in0.3 mm
11:00 PM 59.0°F15.0°C 58.5°F14.7°C 98% 12.7 mph NE20.4 kmh NE 17.3 mph27.8 kmh 29.79 in1008.8 mb 0.00 in0.0 mm 0.00 in/hr0.0 mm/hr 0.01 in0.3 mm